createdAt,value
2023-01-28T00:01:05.176Z,145378.88
2023-01-28T00:02:08.658Z,145396.94
2023-01-28T00:03:11.795Z,145395.72
2023-01-28T00:04:15.622Z,145416.13
2023-01-28T00:05:18.754Z,145419.72
2023-01-28T00:06:21.871Z,145419.72
2023-01-28T00:07:25.348Z,145402.94
2023-01-28T00:08:28.468Z,145400.53
2023-01-28T00:09:31.594Z,145388.47
2023-01-28T00:10:34.709Z,145395.72
2023-01-28T00:11:37.834Z,145395.72
2023-01-28T00:12:41.074Z,145408.94
2023-01-28T00:13:44.434Z,145402.94
2023-01-28T00:14:48.399Z,145395.72
2023-01-28T00:16:03.298Z,145390.94
2023-01-28T00:17:07.126Z,145388.47
2023-01-28T00:18:10.602Z,145381.28
2023-01-28T00:19:13.969Z,145374.06
2023-01-28T00:20:17.462Z,145366.88
2023-01-28T00:21:20.814Z,145352.44
2023-01-28T00:22:24.050Z,145340.44
2023-01-28T00:23:29.345Z,145338.03
2023-01-28T00:24:32.773Z,145326.03
2023-01-28T00:25:35.820Z,145323.59
2023-01-28T00:26:38.821Z,145316.38
2023-01-28T00:27:41.942Z,145319.97
2023-01-28T00:28:45.686Z,145324.81
2023-01-28T00:29:48.900Z,145323.59
2023-01-28T00:30:51.684Z,145318.78
2023-01-28T00:31:54.974Z,145326.03
2023-01-28T00:32:57.908Z,145322.38
2023-01-28T00:34:00.802Z,145326.03
2023-01-28T00:35:03.482Z,145322.38
2023-01-28T00:36:07.213Z,145322.38
2023-01-28T00:37:09.979Z,145321.19
2023-01-28T00:38:12.964Z,145326.03
2023-01-28T00:39:15.606Z,145338.03
2023-01-28T00:40:18.452Z,145339.22
2023-01-28T00:41:24.324Z,145366.88
2023-01-28T00:42:26.888Z,145363.28
2023-01-28T00:43:31.570Z,145354.84
2023-01-28T00:44:33.967Z,145341.63
2023-01-28T00:45:39.225Z,145354.84
2023-01-28T00:46:42.250Z,145347.63
2023-01-28T00:47:45.475Z,145350.03
2023-01-28T00:48:48.738Z,145360.88
2023-01-28T00:49:51.265Z,145365.69
2023-01-28T00:50:53.773Z,145376.47
2023-01-28T00:51:56.300Z,145378.88
2023-01-28T00:52:58.939Z,145400.53
2023-01-28T00:54:01.701Z,145394.53
2023-01-28T00:55:04.579Z,145388.47
2023-01-28T00:56:09.497Z,145390.94
2023-01-28T00:57:12.861Z,145378.88
2023-01-28T00:58:15.350Z,145372.88
2023-01-28T00:59:19.350Z,145359.69
2023-01-28T01:00:27.293Z,145358.47
2023-01-28T01:01:30.753Z,145354.84
2023-01-28T01:02:34.255Z,145365.69
2023-01-28T01:03:36.988Z,145352.44
2023-01-28T01:04:40.971Z,145358.47
2023-01-28T01:05:43.702Z,145364.47
2023-01-28T01:06:46.225Z,145362.06
2023-01-28T01:07:48.749Z,145375.28
2023-01-28T01:08:51.749Z,145371.69
2023-01-28T01:09:54.386Z,145369.28
2023-01-28T01:10:59.551Z,145399.31
2023-01-28T01:12:02.085Z,145406.53
2023-01-28T01:13:06.997Z,145404.13
2023-01-28T01:14:11.446Z,145400.53
2023-01-28T01:15:17.398Z,145383.69
2023-01-28T01:16:19.954Z,145362.06
2023-01-28T01:17:24.639Z,145347.63
2023-01-28T01:18:27.150Z,145345.22
2023-01-28T01:19:30.032Z,145341.63
2023-01-28T01:20:33.659Z,145329.63
2023-01-28T01:21:36.152Z,145318.78
2023-01-28T01:22:38.682Z,145311.56
2023-01-28T01:23:41.438Z,145311.56
2023-01-28T01:24:43.960Z,145321.19
2023-01-28T01:25:46.595Z,145321.19
2023-01-28T01:26:49.957Z,145326.03
2023-01-28T01:27:52.484Z,145326.03
2023-01-28T01:28:55.018Z,145329.63
2023-01-28T01:29:59.078Z,145324.81
2023-01-28T01:31:23.155Z,145335.63
2023-01-28T01:32:30.164Z,145330.81
2023-01-28T01:33:32.930Z,145346.44
2023-01-28T01:34:35.446Z,145377.69
2023-01-28T01:35:37.972Z,145390.94
2023-01-28T01:36:40.490Z,145395.72
2023-01-28T01:37:44.824Z,145405.34
2023-01-28T01:38:48.544Z,145389.72
2023-01-28T01:39:51.262Z,145369.28
2023-01-28T01:40:58.380Z,145364.47
2023-01-28T01:42:01.902Z,145346.44
2023-01-28T01:43:16.263Z,145350.03
2023-01-28T01:44:49.865Z,145344.03
2023-01-28T01:45:59.286Z,145330.81
2023-01-28T01:47:02.007Z,145312.78
2023-01-28T01:48:14.004Z,145318.78
2023-01-28T01:49:23.471Z,145313.97
2023-01-28T01:50:29.234Z,145304.38
2023-01-28T01:51:34.995Z,145294.78
2023-01-28T01:52:37.761Z,145276.75
2023-01-28T01:53:45.696Z,145286.34
2023-01-28T01:54:53.001Z,145280.34
2023-01-28T01:56:00.092Z,145270.75
2023-01-28T01:57:05.366Z,145251.50
2023-01-28T01:58:13.890Z,145244.31
2023-01-28T01:59:22.768Z,145239.50
2023-01-28T02:00:25.888Z,145220.25
2023-01-28T02:01:32.851Z,145232.31
2023-01-28T02:02:40.177Z,145227.50
2023-01-28T02:04:03.817Z,145246.69
2023-01-28T02:05:08.978Z,145232.31
2023-01-28T02:06:13.064Z,145227.50
2023-01-28T02:07:19.218Z,145238.31
2023-01-28T02:08:22.312Z,145229.91
2023-01-28T02:09:27.466Z,145229.91
2023-01-28T02:10:31.067Z,145222.66
2023-01-28T02:11:35.264Z,145215.47
2023-01-28T02:12:43.191Z,145213.06
2023-01-28T02:13:51.592Z,145204.66
2023-01-28T02:15:02.759Z,145189.03
2023-01-28T02:16:07.675Z,145190.22
2023-01-28T02:17:11.395Z,143869.41
2023-01-28T02:18:16.570Z,141923.47
2023-01-28T02:19:22.439Z,138958.69
2023-01-28T02:20:34.444Z,134973.00
2023-01-28T02:22:06.364Z,133991.69
2023-01-28T02:23:53.903Z,136278.59
2023-01-28T02:25:21.130Z,134973.00
2023-01-28T02:26:48.852Z,136927.00
2023-01-28T02:28:22.334Z,137598.84
2023-01-28T02:29:44.782Z,135905.06
2023-01-28T02:31:12.496Z,133592.56
2023-01-28T02:32:25.342Z,127356.84
2023-01-28T02:33:39.151Z,120477.16
2023-01-28T02:35:07.464Z,114929.47
2023-01-28T02:36:22.466Z,113294.50
2023-01-28T02:37:46.123Z,112960.38
2023-01-28T02:38:51.150Z,111977.63
2023-01-28T02:40:00.884Z,109362.97
2023-01-28T02:41:10.050Z,107400.75
2023-01-28T02:42:31.119Z,101864.72
2023-01-28T02:43:38.457Z,99588.94
2023-01-28T02:44:40.782Z,98926.41
2023-01-28T02:46:01.913Z,97299.88
2023-01-28T02:47:25.007Z,95026.59
2023-01-28T02:48:27.570Z,92743.06
2023-01-28T02:49:34.377Z,92086.34
2023-01-28T02:50:51.170Z,88839.66
2023-01-28T02:52:12.933Z,88181.00
2023-01-28T02:53:46.978Z,86878.59
2023-01-28T02:55:03.816Z,84922.53
2023-01-28T02:56:06.215Z,83937.53
2023-01-28T02:57:26.977Z,80372.09
2023-01-28T02:58:38.863Z,77128.53
2023-01-28T03:00:01.638Z,75172.97
2023-01-28T03:01:26.669Z,70969.31
2023-01-28T03:02:36.832Z,69018.44
2023-01-28T03:03:51.083Z,65468.38
2023-01-28T03:04:58.066Z,63846.03
2023-01-28T03:06:07.218Z,60945.38
2023-01-28T03:07:12.709Z,58365.53
2023-01-28T03:08:34.278Z,55145.03
2023-01-28T03:09:39.444Z,51608.38
2023-01-28T03:10:41.992Z,49037.63
2023-01-28T03:12:12.846Z,46150.13
2023-01-28T03:13:34.909Z,43582.81
2023-01-28T03:14:57.839Z,41338.41
2023-01-28T03:16:19.932Z,39414.09
2023-01-28T03:17:57.116Z,37173.81
2023-01-28T03:19:18.832Z,36527.00
2023-01-28T03:20:43.792Z,35247.53
2023-01-28T03:22:07.078Z,33647.22
2023-01-28T03:23:31.797Z,31409.69
2023-01-28T03:25:10.314Z,29172.63
2023-01-28T03:26:33.244Z,27575.50
2023-01-28T03:27:57.604Z,25979.16
2023-01-28T03:29:26.528Z,24066.38
2023-01-28T03:31:15.249Z,22153.44
2023-01-28T03:32:44.406Z,20877.97
2023-01-28T03:34:06.960Z,19922.09
2023-01-28T03:35:32.770Z,18648.50
2023-01-28T03:36:50.643Z,18330.25
2023-01-28T03:38:23.766Z,17376.16
2023-01-28T03:39:29.898Z,16740.47
2023-01-28T03:40:32.531Z,17058.25
2023-01-28T03:41:35.294Z,17059.22
2023-01-28T03:42:37.819Z,16741.78
2023-01-28T03:43:46.456Z,16742.38
2023-01-28T03:44:52.719Z,16742.72
2023-01-28T03:45:56.904Z,16743.31
2023-01-28T03:46:59.428Z,17062.16
2023-01-28T03:48:02.185Z,16744.03
2023-01-28T03:49:04.706Z,17063.13
2023-01-28T03:50:07.594Z,16427.94
2023-01-28T03:51:36.761Z,16428.03
2023-01-28T03:52:39.391Z,16429.69
2023-01-28T03:54:06.153Z,16431.78
2023-01-28T03:55:14.658Z,17068.75
2023-01-28T03:56:20.080Z,17705.81
2023-01-28T03:57:25.238Z,17705.69
2023-01-28T03:58:46.807Z,18660.13
2023-01-28T03:59:52.967Z,18977.78
2023-01-28T04:00:56.204Z,19613.50
2023-01-28T04:01:59.509Z,19295.00
2023-01-28T04:03:02.486Z,19930.53
2023-01-28T04:04:05.569Z,20883.50
2023-01-28T04:05:13.395Z,20562.44
2023-01-28T04:06:22.139Z,21514.84
2023-01-28T04:07:34.015Z,21511.97
2023-01-28T04:09:15.418Z,21189.38
2023-01-28T04:10:50.714Z,20549.16
2023-01-28T04:11:58.744Z,19910.44
2023-01-28T04:13:07.385Z,19272.25
2023-01-28T04:14:10.878Z,18633.78
2023-01-28T04:15:25.151Z,17678.34
2023-01-28T04:16:29.663Z,13868.91
2023-01-28T04:17:33.072Z,13549.84
2023-01-28T04:18:36.202Z,12913.69
2023-01-28T04:19:40.758Z,12913.09
2023-01-28T04:20:44.359Z,12278.09
2023-01-28T04:21:49.399Z,11642.69
2023-01-28T04:22:52.763Z,12277.59
2023-01-28T04:23:57.964Z,12594.84
2023-01-28T04:25:01.284Z,13229.75
2023-01-28T04:26:04.767Z,13547.41
2023-01-28T04:27:08.732Z,14500.34
2023-01-28T04:28:12.208Z,15452.94
2023-01-28T04:29:15.459Z,16723.06
2023-01-28T04:30:19.053Z,17358.25
2023-01-28T04:31:40.833Z,18947.22
2023-01-28T04:33:02.017Z,19582.59
2023-01-28T04:34:13.538Z,19265.53
2023-01-28T04:35:27.100Z,19584.59
2023-01-28T04:36:57.594Z,20538.28
2023-01-28T04:38:20.507Z,21924.41
2023-01-28T04:39:30.347Z,23112.25
2023-01-28T04:40:59.039Z,24031.50
2023-01-28T04:42:05.278Z,24172.94
2023-01-28T04:43:37.316Z,23604.03
2023-01-28T04:44:58.320Z,24113.97
2023-01-28T04:46:13.930Z,24092.31
2023-01-28T04:47:29.521Z,24705.34
2023-01-28T04:48:45.415Z,23466.31
2023-01-28T04:50:07.376Z,22261.25
2023-01-28T04:51:30.535Z,22129.13
2023-01-28T04:52:58.978Z,20984.34
2023-01-28T04:54:24.775Z,19909.59
2023-01-28T04:55:28.983Z,20356.75
2023-01-28T04:56:31.615Z,20042.34
2023-01-28T04:57:34.981Z,19935.47
2023-01-28T04:58:37.740Z,20558.63
2023-01-28T04:59:45.059Z,20115.00
2023-01-28T05:00:54.205Z,17966.94
2023-01-28T05:01:56.802Z,19826.56
2023-01-28T05:02:59.478Z,20064.84
2023-01-28T05:04:05.761Z,19930.06
2023-01-28T05:05:11.703Z,19435.00
2023-01-28T05:06:25.240Z,18934.94
2023-01-28T05:07:33.063Z,19084.41
2023-01-28T05:08:35.587Z,18563.25
2023-01-28T05:09:38.352Z,18161.63
2023-01-28T05:10:41.482Z,17963.56
2023-01-28T05:11:44.008Z,18019.91
2023-01-28T05:12:48.404Z,17517.69
2023-01-28T05:13:51.548Z,18954.38
2023-01-28T05:14:55.393Z,19818.88
2023-01-28T05:15:58.155Z,19904.06
2023-01-28T05:17:00.969Z,20235.50
2023-01-28T05:18:04.035Z,19272.03
2023-01-28T05:19:13.272Z,18265.38
2023-01-28T05:20:17.957Z,18026.09
2023-01-28T05:21:23.117Z,17216.88
2023-01-28T05:22:33.553Z,17169.69
2023-01-28T05:23:48.560Z,17278.06
2023-01-28T05:24:51.315Z,17207.94
2023-01-28T05:25:53.963Z,17680.41
2023-01-28T05:26:56.598Z,18366.06
2023-01-28T05:27:59.119Z,18367.06
2023-01-28T05:29:01.637Z,18387.94
2023-01-28T05:30:06.758Z,17962.16
2023-01-28T05:31:11.134Z,16830.66
2023-01-28T05:32:14.249Z,17661.00
2023-01-28T05:33:17.481Z,16805.13
2023-01-28T05:34:20.020Z,16071.19
2023-01-28T05:35:22.660Z,15818.25
2023-01-28T05:36:25.284Z,16069.94
2023-01-28T05:37:28.882Z,15898.50
2023-01-28T05:38:32.486Z,15920.47
2023-01-28T05:39:35.378Z,14906.22
2023-01-28T05:40:37.928Z,15466.31
2023-01-28T05:41:40.410Z,15324.44
2023-01-28T05:42:43.053Z,14979.88
2023-01-28T05:44:08.861Z,14625.72
2023-01-28T05:45:26.901Z,14164.31
2023-01-28T05:46:45.605Z,15491.94
2023-01-28T05:48:07.064Z,15361.97
2023-01-28T05:49:19.542Z,15549.69
2023-01-28T05:50:40.783Z,15596.13
2023-01-28T05:51:49.908Z,15282.00
2023-01-28T05:52:55.426Z,14546.25
2023-01-28T05:54:02.629Z,14163.22
2023-01-28T05:55:07.945Z,13306.09
2023-01-28T05:56:11.154Z,14163.44
2023-01-28T05:57:15.112Z,13985.00
2023-01-28T05:58:18.000Z,14357.03
2023-01-28T05:59:20.761Z,14766.28
2023-01-28T06:00:25.959Z,14442.59
2023-01-28T06:01:29.325Z,14477.69
2023-01-28T06:02:32.113Z,14438.44
2023-01-28T06:03:36.492Z,14610.50
2023-01-28T06:04:39.612Z,14979.28
2023-01-28T06:05:42.734Z,15058.72
2023-01-28T06:06:46.232Z,13217.06
2023-01-28T06:07:49.452Z,13846.31
2023-01-28T06:08:52.695Z,15178.47
2023-01-28T06:10:01.937Z,15464.25
2023-01-28T06:11:05.540Z,16218.59
2023-01-28T06:12:10.218Z,15894.56
2023-01-28T06:13:26.307Z,14581.25
2023-01-28T06:14:58.702Z,12894.13
2023-01-28T06:16:20.784Z,10675.50
2023-01-28T06:17:46.239Z,10675.16
2023-01-28T06:19:02.673Z,10357.41
2023-01-28T06:20:06.169Z,9723.69
2023-01-28T06:21:09.396Z,9722.94
2023-01-28T06:22:12.996Z,9089.16
2023-01-28T06:23:16.890Z,8139.25
2023-01-28T06:24:20.148Z,6557.00
2023-01-28T06:25:23.440Z,6240.31
2023-01-28T06:26:26.686Z,6239.94
2023-01-28T06:27:29.929Z,6239.56
2023-01-28T06:28:33.525Z,5922.75
2023-01-28T06:29:36.911Z,5922.34
2023-01-28T06:30:40.259Z,5922.00
2023-01-28T06:31:43.397Z,5605.38
2023-01-28T06:32:46.852Z,4972.72
2023-01-28T06:33:49.975Z,4656.50
2023-01-28T06:34:53.216Z,3708.38
2023-01-28T06:35:56.457Z,3076.44
2023-01-28T06:36:59.821Z,2128.72
2023-01-28T06:38:04.982Z,1812.84
2023-01-28T06:39:08.103Z,865.31
2023-01-28T06:40:11.825Z,865.31
2023-01-28T06:41:14.709Z,1181.22
2023-01-28T06:42:17.587Z,1497.06
2023-01-28T06:43:20.609Z,1497.09
2023-01-28T06:44:23.839Z,1181.25
2023-01-28T06:45:27.075Z,865.41
2023-01-28T06:46:29.880Z,233.75
2023-01-28T06:47:32.652Z,549.50
2023-01-28T06:48:35.133Z,549.66
2023-01-28T06:49:38.121Z,865.44
2023-01-28T06:50:40.641Z,865.66
2023-01-28T06:51:43.403Z,1181.28
2023-01-28T06:52:46.049Z,1497.16
2023-01-28T06:53:48.568Z,1812.97
2023-01-28T06:54:51.155Z,2128.78
2023-01-28T06:55:53.851Z,2128.78
2023-01-28T06:56:56.418Z,2128.81
2023-01-28T06:57:58.944Z,1813.03
2023-01-28T06:59:01.460Z,1181.56
2023-01-28T07:00:04.939Z,865.78
2023-01-28T07:01:07.459Z,1181.63
2023-01-28T07:02:11.786Z,234.47
2023-01-28T07:03:14.386Z,-81.66
2023-01-28T07:04:17.184Z,-397.63
2023-01-28T07:05:19.704Z,-397.59
2023-01-28T07:06:22.107Z,233.94
2023-01-28T07:07:24.624Z,865.56
2023-01-28T07:08:27.032Z,1497.22
2023-01-28T07:09:29.667Z,2128.78
2023-01-28T07:10:32.278Z,2444.59
2023-01-28T07:11:34.730Z,2444.59
2023-01-28T07:12:37.472Z,2444.59
2023-01-28T07:13:40.229Z,2128.84
2023-01-28T07:14:42.766Z,2128.84
2023-01-28T07:15:45.269Z,1813.13
2023-01-28T07:16:47.854Z,1497.44
2023-01-28T07:17:50.413Z,865.97
2023-01-28T07:18:53.046Z,550.25
2023-01-28T07:19:55.592Z,234.53
2023-01-28T07:20:58.209Z,-81.38
2023-01-28T07:22:03.160Z,234.19
2023-01-28T07:23:05.677Z,234.09
2023-01-28T07:24:08.586Z,233.94
2023-01-28T07:25:13.004Z,-81.94
2023-01-28T07:26:20.202Z,865.25
2023-01-28T07:27:22.852Z,865.09
2023-01-28T07:28:25.477Z,1180.81
2023-01-28T07:29:27.998Z,1496.66
2023-01-28T07:30:30.529Z,1812.59
2023-01-28T07:31:33.223Z,2128.59
2023-01-28T07:32:35.806Z,2444.66
2023-01-28T07:33:38.325Z,2444.66
2023-01-28T07:34:43.173Z,2444.69
2023-01-28T07:35:46.496Z,2444.69
2023-01-28T07:36:49.006Z,3393.56
2023-01-28T07:37:56.811Z,2128.41
2023-01-28T07:38:59.328Z,4343.00
2023-01-28T07:40:01.992Z,4659.66
2023-01-28T07:41:04.616Z,5293.00
2023-01-28T07:42:07.131Z,6243.00
2023-01-28T07:43:13.970Z,5927.22
2023-01-28T07:44:16.727Z,6244.09
2023-01-28T07:45:19.252Z,6244.94
2023-01-28T07:46:22.012Z,6245.66
2023-01-28T07:47:24.604Z,5928.94
2023-01-28T07:48:27.180Z,5612.44
2023-01-28T07:49:29.703Z,5612.59
2023-01-28T07:50:34.619Z,4028.59
2023-01-28T07:51:37.141Z,5296.25
2023-01-28T07:52:44.584Z,4662.66
2023-01-28T07:53:47.224Z,4345.84
2023-01-28T07:54:49.750Z,4345.69
2023-01-28T07:55:52.271Z,3711.91
2023-01-28T07:56:54.910Z,3394.97
2023-01-28T07:57:59.840Z,2444.78
2023-01-28T07:59:02.481Z,3394.72
2023-01-28T08:00:05.479Z,3078.00
2023-01-28T08:01:14.611Z,2444.75
2023-01-28T08:02:18.567Z,1495.22
2023-01-28T08:03:21.203Z,862.34
2023-01-28T08:04:24.039Z,229.47
2023-01-28T08:05:34.286Z,-1668.56
2023-01-28T08:06:37.910Z,-1035.81
2023-01-28T08:07:40.773Z,228.88
2023-01-28T08:08:43.771Z,-405.19
2023-01-28T08:09:46.890Z,-1990.00
2023-01-28T08:10:50.019Z,-3576.81
2023-01-28T08:11:54.100Z,-7384.09
2023-01-28T08:13:02.261Z,-8023.28
2023-01-28T08:14:05.983Z,-11520.81
2023-01-28T08:15:09.464Z,-12799.75
2023-01-28T08:16:13.065Z,-16623.88
2023-01-28T08:18:25.548Z,-19524.13
2023-01-28T08:19:28.792Z,-19542.06
2023-01-28T08:20:32.405Z,-13512.47
2023-01-28T08:21:35.510Z,206.34
2023-01-28T08:22:38.632Z,35563.28
2023-01-28T08:23:41.753Z,99409.38
2023-01-28T08:24:44.879Z,146399.81
2023-01-28T08:25:48.840Z,146522.81
2023-01-28T08:26:52.086Z,146575.97
2023-01-28T08:27:55.320Z,146578.38
2023-01-28T08:28:58.444Z,146740.09
2023-01-28T08:30:01.563Z,146783.53
2023-01-28T08:31:04.809Z,146821.00
2023-01-28T08:32:08.168Z,146887.41
2023-01-28T08:33:13.696Z,147005.75
2023-01-28T08:34:17.051Z,146990.06
2023-01-28T08:35:20.172Z,147042.00
2023-01-28T08:36:23.798Z,147058.94
2023-01-28T08:37:27.017Z,147174.97
2023-01-28T08:38:30.382Z,147193.13
2023-01-28T08:39:33.625Z,147269.25
2023-01-28T08:40:37.221Z,147231.78
2023-01-28T08:41:40.472Z,147304.31
2023-01-28T08:42:50.785Z,147329.72
2023-01-28T08:43:53.936Z,147404.75
2023-01-28T08:44:57.027Z,147324.91
2023-01-28T08:46:00.074Z,147252.38
2023-01-28T08:47:02.911Z,147378.13
2023-01-28T08:48:07.714Z,147433.72
2023-01-28T08:49:10.475Z,147503.94
2023-01-28T08:50:13.294Z,147586.25
2023-01-28T08:51:16.358Z,147558.41
2023-01-28T08:52:19.005Z,147616.50
2023-01-28T08:53:21.573Z,147523.28
2023-01-28T08:54:24.216Z,147542.66
2023-01-28T08:55:28.246Z,147480.94
2023-01-28T08:56:30.815Z,147399.88
2023-01-28T08:57:33.782Z,147393.81
2023-01-28T08:58:36.460Z,147451.91
2023-01-28T08:59:45.167Z,147525.69
2023-01-28T09:00:48.538Z,147566.88
2023-01-28T09:01:51.870Z,147595.91
2023-01-28T09:02:54.700Z,147557.19
2023-01-28T09:03:57.308Z,147640.72
2023-01-28T09:05:00.319Z,147743.59
2023-01-28T09:06:04.912Z,147857.41
2023-01-28T09:07:07.435Z,147869.56
2023-01-28T09:08:13.027Z,147771.47
2023-01-28T09:09:15.591Z,147600.78
2023-01-28T09:10:20.577Z,147410.78
2023-01-28T09:11:23.267Z,147322.50
2023-01-28T09:12:25.914Z,147176.22
2023-01-28T09:13:29.001Z,147009.38
2023-01-28T09:14:31.792Z,146950.22
2023-01-28T09:15:35.244Z,146891.03
2023-01-28T09:16:37.879Z,146742.50
2023-01-28T09:17:40.908Z,146631.47
2023-01-28T09:18:43.550Z,146630.28
2023-01-28T09:19:46.073Z,146559.09
2023-01-28T09:20:48.717Z,146537.38
2023-01-28T09:21:51.475Z,146481.81
2023-01-28T09:22:54.593Z,146419.09
2023-01-28T09:23:58.592Z,146372.09
2023-01-28T09:25:01.225Z,146346.75
2023-01-28T09:26:05.762Z,146325.03
2023-01-28T09:27:08.279Z,146325.03
2023-01-28T09:28:10.803Z,146300.97
2023-01-28T09:29:13.436Z,146268.41
2023-01-28T09:30:16.718Z,146245.50
2023-01-28T09:31:19.509Z,146218.97
2023-01-28T09:32:22.448Z,146172.00
2023-01-28T09:33:24.964Z,146140.66
2023-01-28T09:34:27.723Z,146180.41
2023-01-28T09:35:30.371Z,146163.53
2023-01-28T09:36:32.887Z,146170.78
2023-01-28T09:37:35.402Z,146149.09
2023-01-28T09:38:38.170Z,146180.41
2023-01-28T09:39:40.693Z,146151.50
2023-01-28T09:40:44.767Z,146170.78
2023-01-28T09:42:21.367Z,146180.41
2023-01-28T09:43:45.132Z,146062.34
2023-01-28T09:44:54.378Z,146033.41
2023-01-28T09:45:59.411Z,146082.81
2023-01-28T09:47:22.099Z,146133.41
2023-01-28T09:48:33.852Z,146192.44
2023-01-28T09:49:43.573Z,146386.53
2023-01-28T09:50:50.429Z,146474.59
2023-01-28T09:51:54.860Z,146597.69
2023-01-28T09:53:03.020Z,146680.94
2023-01-28T09:54:24.266Z,146830.66
2023-01-28T09:55:42.037Z,146923.63
2023-01-28T09:56:46.825Z,147046.88
2023-01-28T09:57:53.441Z,147061.34
2023-01-28T09:58:58.709Z,147327.31
2023-01-28T10:00:02.677Z,147278.97
2023-01-28T10:01:39.763Z,147311.63
2023-01-28T10:03:08.195Z,147604.41
2023-01-28T10:04:33.877Z,147721.81
2023-01-28T10:06:09.879Z,147660.06
2023-01-28T10:07:36.647Z,147640.72
2023-01-28T10:08:52.500Z,147588.66
2023-01-28T10:10:13.813Z,147485.78
2023-01-28T10:11:47.809Z,147593.50
2023-01-28T10:13:13.615Z,147610.47
2023-01-28T10:14:47.462Z,147447.06
2023-01-28T10:15:56.217Z,147507.56
2023-01-28T10:17:13.617Z,147356.34
2023-01-28T10:18:19.022Z,147356.34
2023-01-28T10:19:46.264Z,147336.97
2023-01-28T10:20:55.627Z,147444.66
2023-01-28T10:22:07.390Z,147542.66
2023-01-28T10:23:16.867Z,147702.47
2023-01-28T10:24:51.801Z,147844.09
2023-01-28T10:25:57.927Z,147892.53
2023-01-28T10:27:01.554Z,148007.69
2023-01-28T10:28:18.801Z,148058.59
2023-01-28T10:29:26.719Z,148063.44
2023-01-28T10:30:36.111Z,148160.41
2023-01-28T10:31:47.986Z,148309.53
2023-01-28T10:33:20.483Z,148316.81
2023-01-28T10:34:23.967Z,148476.91
2023-01-28T10:35:28.169Z,148626.22
2023-01-28T10:36:31.532Z,148604.38
2023-01-28T10:37:37.176Z,148626.22
2023-01-28T10:38:40.538Z,148731.84
2023-01-28T10:39:45.112Z,148684.50
2023-01-28T10:40:48.582Z,148680.88
2023-01-28T10:41:58.385Z,148495.13
2023-01-28T10:43:01.899Z,148373.81
2023-01-28T10:44:05.383Z,148187.03
2023-01-28T10:45:17.264Z,147910.72
2023-01-28T10:46:27.466Z,147772.66
2023-01-28T10:47:43.312Z,147635.88
2023-01-28T10:48:57.112Z,147503.94
2023-01-28T10:50:00.714Z,147376.91
2023-01-28T10:51:06.234Z,147174.97
2023-01-28T10:52:15.509Z,147091.56
2023-01-28T10:53:18.237Z,146935.69
2023-01-28T10:54:26.283Z,146904.28
2023-01-28T10:55:56.166Z,146910.31
2023-01-28T10:57:02.882Z,146841.50
2023-01-28T10:58:05.764Z,146806.47
2023-01-28T10:59:29.658Z,146706.28
2023-01-28T11:00:37.346Z,146701.47
2023-01-28T11:01:49.749Z,146625.44
2023-01-28T11:02:52.859Z,146597.69
2023-01-28T11:03:58.980Z,146624.25
2023-01-28T11:05:28.633Z,146868.06
2023-01-28T11:06:31.100Z,147239.03
2023-01-28T11:07:34.276Z,147463.97
2023-01-28T11:08:44.785Z,147714.53
2023-01-28T11:09:50.068Z,147758.13
2023-01-28T11:10:54.189Z,147908.31
2023-01-28T11:11:57.187Z,148128.88
2023-01-28T11:13:02.311Z,148356.84
2023-01-28T11:14:04.870Z,148466.00
2023-01-28T11:15:17.879Z,148657.78
2023-01-28T11:16:21.317Z,148648.09
2023-01-28T11:17:31.201Z,148611.66
2023-01-28T11:18:35.491Z,148677.19
2023-01-28T11:19:39.443Z,148589.84
2023-01-28T11:20:49.398Z,148519.41
2023-01-28T11:21:55.881Z,148541.22
2023-01-28T11:22:58.753Z,148383.56
2023-01-28T11:24:13.313Z,148492.72
2023-01-28T11:25:23.958Z,148563.13
2023-01-28T11:26:31.278Z,148735.47
2023-01-28T11:27:34.041Z,148711.22
2023-01-28T11:28:41.842Z,148779.19
2023-01-28T11:29:45.058Z,148805.88
2023-01-28T11:30:54.606Z,148861.78
2023-01-28T11:31:58.373Z,148978.41
2023-01-28T11:33:12.936Z,149034.28
2023-01-28T11:34:18.466Z,148779.19
2023-01-28T11:35:30.583Z,148954.13
2023-01-28T11:36:35.127Z,149033.06
2023-01-28T11:37:38.005Z,149147.34
2023-01-28T11:38:53.011Z,149247.03
2023-01-28T11:40:25.492Z,149119.41
2023-01-28T11:41:39.085Z,149234.88
2023-01-28T11:42:41.607Z,149236.09
2023-01-28T11:43:47.020Z,149165.56
2023-01-28T11:44:50.256Z,149309.03
2023-01-28T11:45:58.929Z,149391.75
2023-01-28T11:47:10.170Z,149503.66
2023-01-28T11:48:19.050Z,149357.69
2023-01-28T11:49:42.934Z,149390.53
2023-01-28T11:51:04.905Z,149333.41
2023-01-28T11:52:18.339Z,149085.31
2023-01-28T11:53:26.377Z,148835.06
2023-01-28T11:54:34.897Z,148933.44
2023-01-28T11:56:07.660Z,149233.63
2023-01-28T11:57:24.463Z,149178.97
2023-01-28T11:58:47.624Z,149191.09
2023-01-28T12:00:36.498Z,149226.34
2023-01-28T12:01:58.797Z,148945.63
2023-01-28T12:03:25.194Z,149121.81
2023-01-28T12:04:49.216Z,149191.09
2023-01-28T12:06:13.079Z,149389.31
2023-01-28T12:07:44.037Z,149347.97
2023-01-28T12:09:14.171Z,149301.75
2023-01-28T12:10:38.523Z,149131.53
2023-01-28T12:12:20.409Z,149085.31
2023-01-28T12:13:34.210Z,149238.53
2023-01-28T12:15:02.674Z,149132.75
2023-01-28T12:16:14.589Z,148929.81
2023-01-28T12:17:26.223Z,148640.78
2023-01-28T12:18:58.222Z,148583.78
2023-01-28T12:20:16.022Z,148487.88
2023-01-28T12:21:31.346Z,148284.06
2023-01-28T12:23:01.824Z,148046.44
2023-01-28T12:24:31.974Z,147905.88
2023-01-28T12:25:54.869Z,147679.44
2023-01-28T12:27:11.433Z,147641.94
2023-01-28T12:28:38.557Z,147511.19
2023-01-28T12:29:50.316Z,147426.50
2023-01-28T12:31:06.601Z,147303.13
2023-01-28T12:32:47.800Z,147242.72
2023-01-28T12:33:57.882Z,147174.97
2023-01-28T12:35:22.488Z,147214.88
2023-01-28T12:36:47.446Z,147235.41
2023-01-28T12:38:09.407Z,147136.31
2023-01-28T12:39:56.450Z,146965.91
2023-01-28T12:41:05.573Z,146944.16
2023-01-28T12:42:15.898Z,146958.66
2023-01-28T12:43:55.512Z,146889.81
2023-01-28T12:45:19.748Z,146863.25
2023-01-28T12:46:43.259Z,146822.19
2023-01-28T12:47:58.625Z,146887.41
2023-01-28T12:49:05.627Z,146856.00
2023-01-28T12:50:15.241Z,146869.28
2023-01-28T12:51:25.993Z,146827.03
2023-01-28T12:52:44.954Z,146836.66
2023-01-28T12:53:57.673Z,146807.69
2023-01-28T12:55:03.438Z,146783.53
2023-01-28T12:56:18.797Z,146703.88
2023-01-28T12:57:28.162Z,146742.50
2023-01-28T12:58:43.533Z,146706.28
2023-01-28T13:00:06.926Z,146655.63
2023-01-28T13:01:16.765Z,146671.28
2023-01-28T13:02:25.100Z,146699.06
2023-01-28T13:03:34.344Z,146712.31
2023-01-28T13:04:42.958Z,146736.47
2023-01-28T13:05:55.295Z,146735.25
2023-01-28T13:07:05.736Z,146740.09
2023-01-28T13:08:18.265Z,146699.06
2023-01-28T13:09:24.512Z,146677.31
2023-01-28T13:10:42.587Z,146665.25
2023-01-28T13:11:48.582Z,146645.94
2023-01-28T13:12:52.063Z,146677.31
2023-01-28T13:13:54.748Z,146656.84
2023-01-28T13:14:59.074Z,146650.75
2023-01-28T13:16:02.751Z,146661.66
2023-01-28T13:17:31.590Z,146650.75
2023-01-28T13:18:45.400Z,146664.06
2023-01-28T13:19:48.031Z,146643.53
2023-01-28T13:20:54.101Z,146667.69
2023-01-28T13:21:57.995Z,146819.78